sensor_id;sensor_type;location;lat;lon;timestamp;pressure;altitude;pressure_sealevel;temperature;humidity
10008;BME280;5043;41.766;26.204;2023-05-20T00:00:26;101088.56;;;14.16;100.00
10008;BME280;5043;41.766;26.204;2023-05-20T00:02:51;101062.03;;;14.05;100.00
10008;BME280;5043;41.766;26.204;2023-05-20T00:05:17;101110.03;;;14.13;100.00
10008;BME280;5043;41.766;26.204;2023-05-20T00:07:42;101042.91;;;13.79;100.00
10008;BME280;5043;41.766;26.204;2023-05-20T00:10:08;101100.00;;;14.17;100.00
10008;BME280;5043;41.766;26.204;2023-05-20T00:12:33;101115.81;;;14.07;100.00
10008;BME280;5043;41.766;26.204;2023-05-20T00:15:01;101081.56;;;14.15;100.00
10008;BME280;5043;41.766;26.204;2023-05-20T00:17:27;101078.53;;;14.20;100.00
10008;BME280;5043;41.766;26.204;2023-05-20T00:19:53;101090.59;;;14.24;100.00
10008;BME280;5043;41.766;26.204;2023-05-20T00:22:19;100971.06;;;13.71;100.00
10008;BME280;5043;41.766;26.204;2023-05-20T00:24:44;101062.63;;;14.31;100.00
10008;BME280;5043;41.766;26.204;2023-05-20T00:27:10;101069.81;;;14.40;100.00
10008;BME280;5043;41.766;26.204;2023-05-20T00:29:35;101063.22;;;14.34;100.00
10008;BME280;5043;41.766;26.204;2023-05-20T00:32:01;101061.41;;;14.35;100.00
10008;BME280;5043;41.766;26.204;2023-05-20T00:34:26;101073.34;;;14.29;100.00
10008;BME280;5043;41.766;26.204;2023-05-20T00:36:52;101018.91;;;13.92;100.00
10008;BME280;5043;41.766;26.204;2023-05-20T00:39:17;101068.78;;;14.09;100.00
10008;BME280;5043;41.766;26.204;2023-05-20T00:41:43;101069.66;;;13.99;100.00
10008;BME280;5043;41.766;26.204;2023-05-20T00:44:08;101063.88;;;13.94;100.00
10008;BME280;5043;41.766;26.204;2023-05-20T00:46:34;101049.28;;;13.88;100.00
10008;BME280;5043;41.766;26.204;2023-05-20T00:49:00;101080.75;;;13.82;100.00
10008;BME280;5043;41.766;26.204;2023-05-20T00:51:26;101055.22;;;13.81;100.00
10008;BME280;5043;41.766;26.204;2023-05-20T00:53:52;101060.91;;;13.76;100.00
10008;BME280;5043;41.766;26.204;2023-05-20T00:56:17;101068.09;;;13.74;100.00
10008;BME280;5043;41.766;26.204;2023-05-20T00:58:43;101054.84;;;13.74;100.00
10008;BME280;5043;41.766;26.204;2023-05-20T01:01:08;101069.94;;;13.73;100.00
10008;BME280;5043;41.766;26.204;2023-05-20T01:03:34;101074.88;;;13.78;100.00
10008;BME280;5043;41.766;26.204;2023-05-20T01:05:59;101067.03;;;13.76;100.00
10008;BME280;5043;41.766;26.204;2023-05-20T01:08:25;101063.06;;;13.71;100.00
10008;BME280;5043;41.766;26.204;2023-05-20T01:11:21;101071.50;;;13.76;100.00
10008;BME280;5043;41.766;26.204;2023-05-20T01:13:54;101053.28;;;13.60;100.00
10008;BME280;5043;41.766;26.204;2023-05-20T01:16:23;100996.94;;;13.36;100.00
10008;BME280;5043;41.766;26.204;2023-05-20T01:18:50;101072.94;;;13.58;100.00
10008;BME280;5043;41.766;26.204;2023-05-20T01:21:19;101005.69;;;13.37;100.00
10008;BME280;5043;41.766;26.204;2023-05-20T01:23:46;101073.19;;;13.66;100.00
10008;BME280;5043;41.766;26.204;2023-05-20T01:26:12;100988.97;;;13.25;100.00
10008;BME280;5043;41.766;26.204;2023-05-20T01:28:38;101056.06;;;13.59;100.00
10008;BME280;5043;41.766;26.204;2023-05-20T01:31:05;101048.84;;;13.61;100.00
10008;BME280;5043;41.766;26.204;2023-05-20T01:33:35;101044.03;;;13.55;100.00
10008;BME280;5043;41.766;26.204;2023-05-20T01:36:01;101054.63;;;13.55;100.00
10008;BME280;5043;41.766;26.204;2023-05-20T01:38:28;101052.22;;;13.41;100.00
10008;BME280;5043;41.766;26.204;2023-05-20T01:40:56;101051.84;;;13.34;100.00
10008;BME280;5043;41.766;26.204;2023-05-20T01:43:23;101079.31;;;13.44;100.00
10008;BME280;5043;41.766;26.204;2023-05-20T01:45:49;101061.84;;;13.42;100.00
10008;BME280;5043;41.766;26.204;2023-05-20T01:48:15;101040.78;;;13.40;100.00
10008;BME280;5043;41.766;26.204;2023-05-20T01:50:41;101042.94;;;13.46;100.00
10008;BME280;5043;41.766;26.204;2023-05-20T01:53:06;101042.81;;;13.48;100.00
10008;BME280;5043;41.766;26.204;2023-05-20T01:55:34;100999.44;;;13.16;100.00
10008;BME280;5043;41.766;26.204;2023-05-20T01:57:59;101043.66;;;13.48;100.00
10008;BME280;5043;41.766;26.204;2023-05-20T02:00:25;101047.75;;;13.52;100.00
10008;BME280;5043;41.766;26.204;2023-05-20T02:02:50;101054.88;;;13.52;100.00
10008;BME280;5043;41.766;26.204;2023-05-20T02:05:15;101045.47;;;13.59;100.00
10008;BME280;5043;41.766;26.204;2023-05-20T02:07:41;100993.91;;;13.41;100.00
10008;BME280;5043;41.766;26.204;2023-05-20T02:10:07;101069.94;;;13.73;100.00
10008;BME280;5043;41.766;26.204;2023-05-20T02:12:32;101000.88;;;13.42;100.00
10008;BME280;5043;41.766;26.204;2023-05-20T02:14:58;100970.66;;;13.33;100.00
10008;BME280;5043;41.766;26.204;2023-05-20T02:17:23;101035.44;;;13.62;100.00
10008;BME280;5043;41.766;26.204;2023-05-20T02:19:49;101035.47;;;13.51;100.00
10008;BME280;5043;41.766;26.204;2023-05-20T02:22:14;100975.06;;;12.99;100.00
10008;BME280;5043;41.766;26.204;2023-05-20T02:24:39;101011.72;;;13.17;100.00
10008;BME280;5043;41.766;26.204;2023-05-20T02:27:07;101035.34;;;13.31;100.00
10008;BME280;5043;41.766;26.204;2023-05-20T02:29:32;101038.34;;;13.26;100.00
10008;BME280;5043;41.766;26.204;2023-05-20T02:31:58;101050.75;;;13.37;100.00
10008;BME280;5043;41.766;26.204;2023-05-20T02:34:23;101013.88;;;13.12;100.00
10008;BME280;5043;41.766;26.204;2023-05-20T02:36:50;101052.19;;;13.19;100.00
10008;BME280;5043;41.766;26.204;2023-05-20T02:39:16;101005.41;;;12.95;100.00
10008;BME280;5043;41.766;26.204;2023-05-20T02:41:42;101072.09;;;13.35;100.00
10008;BME280;5043;41.766;26.204;2023-05-20T02:44:07;101085.81;;;13.29;100.00
10008;BME280;5043;41.766;26.204;2023-05-20T02:46:33;100980.56;;;12.85;100.00
10008;BME280;5043;41.766;26.204;2023-05-20T02:48:58;101065.94;;;13.24;100.00
10008;BME280;5043;41.766;26.204;2023-05-20T02:51:24;101048.59;;;13.31;100.00
10008;BME280;5043;41.766;26.204;2023-05-20T02:53:49;101060.13;;;13.30;100.00
10008;BME280;5043;41.766;26.204;2023-05-20T02:56:15;100989.75;;;12.92;100.00
10008;BME280;5043;41.766;26.204;2023-05-20T02:58:40;101047.59;;;13.32;100.00
10008;BME280;5043;41.766;26.204;2023-05-20T03:01:06;101058.47;;;13.40;100.00
10008;BME280;5043;41.766;26.204;2023-05-20T03:03:32;101040.03;;;13.27;100.00
10008;BME280;5043;41.766;26.204;2023-05-20T03:05:57;101053.03;;;13.19;100.00
10008;BME280;5043;41.766;26.204;2023-05-20T03:08:23;101061.72;;;13.32;100.00
10008;BME280;5043;41.766;26.204;2023-05-20T03:10:48;101056.25;;;13.12;100.00
10008;BME280;5043;41.766;26.204;2023-05-20T03:13:15;101106.75;;;13.32;100.00
10008;BME280;5043;41.766;26.204;2023-05-20T03:15:41;101078.69;;;13.30;100.00
10008;BME280;5043;41.766;26.204;2023-05-20T03:18:08;101066.66;;;13.37;100.00
10008;BME280;5043;41.766;26.204;2023-05-20T03:20:34;101071.47;;;13.32;100.00
10008;BME280;5043;41.766;26.204;2023-05-20T03:23:03;101014.28;;;12.94;100.00
10008;BME280;5043;41.766;26.204;2023-05-20T03:25:29;101068.34;;;13.27;100.00
10008;BME280;5043;41.766;26.204;2023-05-20T03:27:55;101076.41;;;13.25;100.00
10008;BME280;5043;41.766;26.204;2023-05-20T03:30:22;101096.28;;;13.31;100.00
10008;BME280;5043;41.766;26.204;2023-05-20T03:32:48;101083.97;;;13.19;100.00
10008;BME280;5043;41.766;26.204;2023-05-20T03:35:14;101039.59;;;12.98;100.00
10008;BME280;5043;41.766;26.204;2023-05-20T03:37:39;101096.66;;;13.26;100.00
10008;BME280;5043;41.766;26.204;2023-05-20T03:40:06;101037.50;;;13.15;100.00
10008;BME280;5043;41.766;26.204;2023-05-20T03:42:32;101101.72;;;13.51;100.00
10008;BME280;5043;41.766;26.204;2023-05-20T03:44:58;101080.66;;;13.50;100.00
10008;BME280;5043;41.766;26.204;2023-05-20T03:47:25;101090.41;;;13.60;100.00
10008;BME280;5043;41.766;26.204;2023-05-20T03:49:50;101096.56;;;13.61;100.00
10008;BME280;5043;41.766;26.204;2023-05-20T03:52:16;101036.06;;;13.44;100.00
10008;BME280;5043;41.766;26.204;2023-05-20T03:54:41;101036.31;;;13.52;100.00
10008;BME280;5043;41.766;26.204;2023-05-20T03:57:06;101062.44;;;13.67;100.00
10008;BME280;5043;41.766;26.204;2023-05-20T03:59:34;101080.16;;;13.89;100.00
10008;BME280;5043;41.766;26.204;2023-05-20T04:02:00;101104.13;;;14.10;100.00
10008;BME280;5043;41.766;26.204;2023-05-20T04:04:26;101109.06;;;14.14;100.00
10008;BME280;5043;41.766;26.204;2023-05-20T04:06:51;101094.47;;;14.31;100.00
10008;BME280;5043;41.766;26.204;2023-05-20T04:09:18;101088.91;;;14.34;100.00
10008;BME280;5043;41.766;26.204;2023-05-20T04:11:44;101079.53;;;14.30;100.00
10008;BME280;5043;41.766;26.204;2023-05-20T04:14:09;101110.97;;;14.45;100.00
10008;BME280;5043;41.766;26.204;2023-05-20T04:16:35;101108.50;;;14.54;100.00
10008;BME280;5043;41.766;26.204;2023-05-20T04:19:02;101103.94;;;14.56;100.00
10008;BME280;5043;41.766;26.204;2023-05-20T04:21:27;101097.97;;;14.63;100.00
10008;BME280;5043;41.766;26.204;2023-05-20T04:23:53;101100.25;;;14.68;100.00
10008;BME280;5043;41.766;26.204;2023-05-20T04:26:18;101041.63;;;14.39;100.00
10008;BME280;5043;41.766;26.204;2023-05-20T04:28:45;101071.09;;;14.57;100.00
10008;BME280;5043;41.766;26.204;2023-05-20T04:31:13;101110.28;;;14.96;100.00
10008;BME280;5043;41.766;26.204;2023-05-20T04:33:38;101132.31;;;15.07;100.00
10008;BME280;5043;41.766;26.204;2023-05-20T04:36:06;101041.66;;;14.80;100.00
10008;BME280;5043;41.766;26.204;2023-05-20T04:38:32;101107.72;;;15.26;100.00
10008;BME280;5043;41.766;26.204;2023-05-20T04:40:58;101114.00;;;15.46;100.00
10008;BME280;5043;41.766;26.204;2023-05-20T04:43:24;101120.50;;;15.53;100.00
10008;BME280;5043;41.766;26.204;2023-05-20T04:45:51;101117.31;;;15.59;100.00
10008;BME280;5043;41.766;26.204;2023-05-20T04:48:19;101113.72;;;15.69;100.00
10008;BME280;5043;41.766;26.204;2023-05-20T04:50:44;101116.28;;;15.80;100.00
10008;BME280;5043;41.766;26.204;2023-05-20T04:53:10;101136.25;;;15.96;100.00
10008;BME280;5043;41.766;26.204;2023-05-20T04:55:36;101119.19;;;15.98;100.00
10008;BME280;5043;41.766;26.204;2023-05-20T04:58:03;101124.53;;;16.08;100.00
10008;BME280;5043;41.766;26.204;2023-05-20T05:00:28;101084.44;;;16.00;100.00
10008;BME280;5043;41.766;26.204;2023-05-20T05:02:54;101073.34;;;15.95;100.00
10008;BME280;5043;41.766;26.204;2023-05-20T05:05:20;101067.59;;;15.99;100.00
10008;BME280;5043;41.766;26.204;2023-05-20T05:07:45;101120.97;;;16.47;100.00
10008;BME280;5043;41.766;26.204;2023-05-20T05:10:11;101083.97;;;16.44;100.00
10008;BME280;5043;41.766;26.204;2023-05-20T05:12:36;101120.63;;;16.80;100.00
10008;BME280;5043;41.766;26.204;2023-05-20T05:15:02;101135.09;;;17.06;100.00
10008;BME280;5043;41.766;26.204;2023-05-20T05:17:28;101117.81;;;17.01;100.00
10008;BME280;5043;41.766;26.204;2023-05-20T05:19:53;101090.31;;;16.81;100.00
10008;BME280;5043;41.766;26.204;2023-05-20T05:22:19;101148.69;;;17.03;100.00
10008;BME280;5043;41.766;26.204;2023-05-20T05:24:44;101143.94;;;16.88;100.00
10008;BME280;5043;41.766;26.204;2023-05-20T05:27:10;101136.63;;;16.71;100.00
10008;BME280;5043;41.766;26.204;2023-05-20T05:29:35;101139.53;;;16.58;100.00
10008;BME280;5043;41.766;26.204;2023-05-20T05:32:01;101141.50;;;16.66;100.00
10008;BME280;5043;41.766;26.204;2023-05-20T05:34:27;101138.69;;;16.67;100.00
10008;BME280;5043;41.766;26.204;2023-05-20T05:36:52;101079.75;;;16.41;100.00
10008;BME280;5043;41.766;26.204;2023-05-20T05:39:18;101123.56;;;16.68;100.00
10008;BME280;5043;41.766;26.204;2023-05-20T05:41:43;101095.31;;;16.46;100.00
10008;BME280;5043;41.766;26.204;2023-05-20T05:44:09;101142.22;;;16.77;100.00
10008;BME280;5043;41.766;26.204;2023-05-20T05:46:34;101046.81;;;16.33;100.00
10008;BME280;5043;41.766;26.204;2023-05-20T05:49:00;101135.50;;;16.92;100.00
10008;BME280;5043;41.766;26.204;2023-05-20T05:51:26;101145.16;;;16.84;100.00
10008;BME280;5043;41.766;26.204;2023-05-20T05:53:53;101086.84;;;16.62;100.00
10008;BME280;5043;41.766;26.204;2023-05-20T05:56:18;101137.06;;;16.95;100.00
10008;BME280;5043;41.766;26.204;2023-05-20T05:58:44;101148.97;;;17.00;100.00
10008;BME280;5043;41.766;26.204;2023-05-20T06:01:09;101133.38;;;17.15;100.00
10008;BME280;5043;41.766;26.204;2023-05-20T06:03:35;101137.16;;;17.22;100.00
10008;BME280;5043;41.766;26.204;2023-05-20T06:06:01;101136.72;;;17.36;100.00
10008;BME280;5043;41.766;26.204;2023-05-20T06:08:26;101144.03;;;17.53;100.00
10008;BME280;5043;41.766;26.204;2023-05-20T06:10:52;101149.19;;;17.64;100.00
10008;BME280;5043;41.766;26.204;2023-05-20T06:13:17;101116.72;;;17.69;100.00
10008;BME280;5043;41.766;26.204;2023-05-20T06:15:43;101122.94;;;17.97;100.00
10008;BME280;5043;41.766;26.204;2023-05-20T06:18:11;101144.22;;;18.16;100.00
10008;BME280;5043;41.766;26.204;2023-05-20T06:20:37;101122.50;;;18.28;100.00
10008;BME280;5043;41.766;26.204;2023-05-20T06:23:02;101121.44;;;18.39;100.00
10008;BME280;5043;41.766;26.204;2023-05-20T06:25:28;101118.47;;;18.51;100.00
10008;BME280;5043;41.766;26.204;2023-05-20T06:27:53;101130.75;;;18.97;97.35
10008;BME280;5043;41.766;26.204;2023-05-20T06:30:19;101106.56;;;18.81;95.79
10008;BME280;5043;41.766;26.204;2023-05-20T06:32:45;101124.00;;;19.11;96.14
10008;BME280;5043;41.766;26.204;2023-05-20T06:35:11;101108.94;;;19.28;94.69
10008;BME280;5043;41.766;26.204;2023-05-20T06:37:37;101055.47;;;19.10;94.05
10008;BME280;5043;41.766;26.204;2023-05-20T06:40:03;101109.63;;;19.47;94.59
10008;BME280;5043;41.766;26.204;2023-05-20T06:42:28;101071.41;;;19.37;93.72
10008;BME280;5043;41.766;26.204;2023-05-20T06:44:54;101069.78;;;19.44;92.33
10008;BME280;5043;41.766;26.204;2023-05-20T06:47:19;101013.63;;;19.27;92.47
10008;BME280;5043;41.766;26.204;2023-05-20T06:49:45;101128.72;;;20.20;91.82
10008;BME280;5043;41.766;26.204;2023-05-20T06:52:10;101138.25;;;20.48;91.35
10008;BME280;5043;41.766;26.204;2023-05-20T06:54:39;101125.03;;;20.71;90.24
10008;BME280;5043;41.766;26.204;2023-05-20T06:57:08;101133.13;;;20.95;88.96
10008;BME280;5043;41.766;26.204;2023-05-20T06:59:35;101121.94;;;21.23;88.10
10008;BME280;5043;41.766;26.204;2023-05-20T07:02:01;101143.25;;;21.33;88.00
10008;BME280;5043;41.766;26.204;2023-05-20T07:04:27;101100.78;;;21.45;87.73
10008;BME280;5043;41.766;26.204;2023-05-20T07:06:53;101091.44;;;21.79;85.65
10008;BME280;5043;41.766;26.204;2023-05-20T07:09:18;101118.13;;;22.28;84.93
10008;BME280;5043;41.766;26.204;2023-05-20T07:11:44;101134.34;;;22.50;80.29
10008;BME280;5043;41.766;26.204;2023-05-20T07:14:10;101130.59;;;22.59;79.12
10008;BME280;5043;41.766;26.204;2023-05-20T07:16:35;101130.94;;;22.56;74.20
10008;BME280;5043;41.766;26.204;2023-05-20T07:19:01;101119.72;;;22.45;67.67
10008;BME280;5043;41.766;26.204;2023-05-20T07:21:27;101055.03;;;21.85;66.83
10008;BME280;5043;41.766;26.204;2023-05-20T07:23:52;101108.31;;;22.12;66.63
10008;BME280;5043;41.766;26.204;2023-05-20T07:26:18;101104.13;;;22.02;66.50
10008;BME280;5043;41.766;26.204;2023-05-20T07:28:43;101086.16;;;22.02;66.76
10008;BME280;5043;41.766;26.204;2023-05-20T07:31:10;101104.25;;;22.16;66.04
10008;BME280;5043;41.766;26.204;2023-05-20T07:33:35;101089.97;;;22.16;66.49
10008;BME280;5043;41.766;26.204;2023-05-20T07:36:01;101107.75;;;22.25;66.52
10008;BME280;5043;41.766;26.204;2023-05-20T07:38:26;101115.31;;;22.21;66.25
10008;BME280;5043;41.766;26.204;2023-05-20T07:40:52;101113.78;;;22.27;65.81
10008;BME280;5043;41.766;26.204;2023-05-20T07:43:18;101101.25;;;22.11;66.13
10008;BME280;5043;41.766;26.204;2023-05-20T07:45:44;101124.00;;;22.31;66.76
10008;BME280;5043;41.766;26.204;2023-05-20T07:48:09;101126.81;;;22.46;67.03
10008;BME280;5043;41.766;26.204;2023-05-20T07:50:37;101119.84;;;22.51;65.65
10008;BME280;5043;41.766;26.204;2023-05-20T07:53:05;101117.69;;;22.47;66.63
10008;BME280;5043;41.766;26.204;2023-05-20T07:55:34;101110.72;;;22.69;65.99
10008;BME280;5043;41.766;26.204;2023-05-20T07:58:01;101077.53;;;22.45;66.20
10008;BME280;5043;41.766;26.204;2023-05-20T08:00:30;101110.22;;;22.65;67.86
10008;BME280;5043;41.766;26.204;2023-05-20T08:02:56;101112.75;;;22.58;67.63
10008;BME280;5043;41.766;26.204;2023-05-20T08:05:22;101115.78;;;22.55;65.31
10008;BME280;5043;41.766;26.204;2023-05-20T08:07:48;101129.22;;;22.64;63.06
10008;BME280;5043;41.766;26.204;2023-05-20T08:10:13;101121.34;;;22.62;64.04
10008;BME280;5043;41.766;26.204;2023-05-20T08:12:39;101128.03;;;22.66;64.66
10008;BME280;5043;41.766;26.204;2023-05-20T08:15:05;101120.75;;;22.75;63.49
10008;BME280;5043;41.766;26.204;2023-05-20T08:17:31;101138.22;;;22.79;59.88
10008;BME280;5043;41.766;26.204;2023-05-20T08:19:57;101127.97;;;22.74;60.98
10008;BME280;5043;41.766;26.204;2023-05-20T08:22:22;101130.72;;;22.66;62.29
10008;BME280;5043;41.766;26.204;2023-05-20T08:24:48;101146.81;;;22.74;62.08
10008;BME280;5043;41.766;26.204;2023-05-20T08:27:13;101129.91;;;22.57;61.38
10008;BME280;5043;41.766;26.204;2023-05-20T08:29:39;101135.13;;;22.28;61.76
10008;BME280;5043;41.766;26.204;2023-05-20T08:32:04;101142.84;;;22.23;62.11
10008;BME280;5043;41.766;26.204;2023-05-20T08:34:30;101079.72;;;21.72;62.68
10008;BME280;5043;41.766;26.204;2023-05-20T08:36:55;101074.88;;;21.60;63.80
10008;BME280;5043;41.766;26.204;2023-05-20T08:39:22;101095.03;;;21.56;64.88
10008;BME280;5043;41.766;26.204;2023-05-20T08:41:47;101137.13;;;21.71;65.59
10008;BME280;5043;41.766;26.204;2023-05-20T08:44:13;101130.97;;;21.47;66.99
10008;BME280;5043;41.766;26.204;2023-05-20T08:46:39;101124.94;;;21.45;68.32
10008;BME280;5043;41.766;26.204;2023-05-20T08:49:06;101123.91;;;21.54;68.00
10008;BME280;5043;41.766;26.204;2023-05-20T08:51:32;101144.72;;;21.44;69.71
10008;BME280;5043;41.766;26.204;2023-05-20T08:54:02;101126.97;;;21.43;70.31
10008;BME280;5043;41.766;26.204;2023-05-20T08:56:27;101125.25;;;21.42;70.58
10008;BME280;5043;41.766;26.204;2023-05-20T08:58:53;101105.97;;;21.30;71.64
10008;BME280;5043;41.766;26.204;2023-05-20T09:01:23;101113.00;;;21.39;71.74
10008;BME280;5043;41.766;26.204;2023-05-20T09:03:49;101123.28;;;21.36;72.23
10008;BME280;5043;41.766;26.204;2023-05-20T09:06:16;101044.59;;;20.95;72.82
10008;BME280;5043;41.766;26.204;2023-05-20T09:08:45;101108.84;;;21.29;73.63
10008;BME280;5043;41.766;26.204;2023-05-20T09:11:11;101118.38;;;21.39;73.81
10008;BME280;5043;41.766;26.204;2023-05-20T09:13:37;101098.75;;;21.47;73.95
10008;BME280;5043;41.766;26.204;2023-05-20T09:16:02;101099.22;;;21.50;73.96
10008;BME280;5043;41.766;26.204;2023-05-20T09:18:28;101097.72;;;21.56;74.62
10008;BME280;5043;41.766;26.204;2023-05-20T09:20:54;101087.31;;;21.61;73.86
10008;BME280;5043;41.766;26.204;2023-05-20T09:23:19;101109.44;;;21.71;72.20
10008;BME280;5043;41.766;26.204;2023-05-20T09:25:50;101090.94;;;21.76;72.04
10008;BME280;5043;41.766;26.204;2023-05-20T09:28:18;101086.25;;;21.78;71.68
10008;BME280;5043;41.766;26.204;2023-05-20T09:30:43;101042.34;;;21.47;71.27
10008;BME280;5043;41.766;26.204;2023-05-20T09:33:10;101087.25;;;21.69;71.69
10008;BME280;5043;41.766;26.204;2023-05-20T09:35:36;101060.25;;;21.62;72.42
10008;BME280;5043;41.766;26.204;2023-05-20T09:38:04;101084.75;;;21.75;72.21
10008;BME280;5043;41.766;26.204;2023-05-20T09:40:29;101072.41;;;21.97;71.52
10008;BME280;5043;41.766;26.204;2023-05-20T09:42:59;101075.50;;;22.25;67.43
10008;BME280;5043;41.766;26.204;2023-05-20T09:45:25;101062.47;;;22.59;62.95
10008;BME280;5043;41.766;26.204;2023-05-20T09:47:51;101057.06;;;22.90;60.79
10008;BME280;5043;41.766;26.204;2023-05-20T09:50:18;101079.41;;;23.13;58.27
10008;BME280;5043;41.766;26.204;2023-05-20T09:52:46;101055.69;;;23.46;57.66
10008;BME280;5043;41.766;26.204;2023-05-20T09:55:13;101056.09;;;23.72;59.28
10008;BME280;5043;41.766;26.204;2023-05-20T09:57:39;101050.16;;;24.27;55.98
10008;BME280;5043;41.766;26.204;2023-05-20T10:00:05;101060.84;;;24.56;56.07
10008;BME280;5043;41.766;26.204;2023-05-20T10:02:33;101020.22;;;24.64;51.90
10008;BME280;5043;41.766;26.204;2023-05-20T10:05:03;101056.34;;;25.05;49.60
10008;BME280;5043;41.766;26.204;2023-05-20T10:19:00;101041.72;;;25.49;43.23
10008;BME280;5043;41.766;26.204;2023-05-20T10:21:21;101008.25;;;25.15;43.58
10008;BME280;5043;41.766;26.204;2023-05-20T10:23:49;100994.97;;;24.93;44.35
10008;BME280;5043;41.766;26.204;2023-05-20T10:26:14;100999.03;;;25.10;44.73
10008;BME280;5043;41.766;26.204;2023-05-20T10:28:40;101038.13;;;25.14;44.53
10008;BME280;5043;41.766;26.204;2023-05-20T10:31:21;101033.06;;;25.04;45.54
10008;BME280;5043;41.766;26.204;2023-05-20T10:33:48;101038.34;;;25.12;47.46
10008;BME280;5043;41.766;26.204;2023-05-20T10:36:28;101012.84;;;24.73;46.74
10008;BME280;5043;41.766;26.204;2023-05-20T10:38:56;101043.28;;;24.67;46.54
10008;BME280;5043;41.766;26.204;2023-05-20T10:41:27;101046.19;;;24.65;47.46
10008;BME280;5043;41.766;26.204;2023-05-20T10:44:03;100987.63;;;24.38;48.35
10008;BME280;5043;41.766;26.204;2023-05-20T10:46:30;100982.50;;;24.43;47.60
10008;BME280;5043;41.766;26.204;2023-05-20T10:48:55;100961.59;;;24.30;46.93
10008;BME280;5043;41.766;26.204;2023-05-20T10:51:22;101032.75;;;24.50;46.80
10008;BME280;5043;41.766;26.204;2023-05-20T10:53:51;101022.50;;;24.60;46.44
10008;BME280;5043;41.766;26.204;2023-05-20T10:56:19;101023.19;;;24.69;46.53
10008;BME280;5043;41.766;26.204;2023-05-20T10:58:45;101029.31;;;24.56;48.46
10008;BME280;5043;41.766;26.204;2023-05-20T11:01:12;101029.31;;;24.56;51.43
10008;BME280;5043;41.766;26.204;2023-05-20T11:03:40;101019.16;;;24.37;51.86
10008;BME280;5043;41.766;26.204;2023-05-20T11:06:18;100982.91;;;23.89;51.83
10008;BME280;5043;41.766;26.204;2023-05-20T11:08:44;101005.22;;;23.98;51.58
10008;BME280;5043;41.766;26.204;2023-05-20T11:11:14;101020.47;;;23.91;52.13
10008;BME280;5043;41.766;26.204;2023-05-20T11:13:40;101039.34;;;23.76;52.11
10008;BME280;5043;41.766;26.204;2023-05-20T11:16:05;101019.00;;;23.74;52.95
10008;BME280;5043;41.766;26.204;2023-05-20T11:18:31;101017.50;;;23.71;54.49
10008;BME280;5043;41.766;26.204;2023-05-20T11:20:57;101014.47;;;23.60;53.04
10008;BME280;5043;41.766;26.204;2023-05-20T11:23:25;101028.94;;;23.59;54.44
10008;BME280;5043;41.766;26.204;2023-05-20T11:25:52;100979.78;;;23.13;56.42
10008;BME280;5043;41.766;26.204;2023-05-20T11:28:19;101013.94;;;23.12;55.24
10008;BME280;5043;41.766;26.204;2023-05-20T11:30:46;101016.53;;;23.06;56.78
10008;BME280;5043;41.766;26.204;2023-05-20T11:33:13;101019.69;;;22.95;57.96
10008;BME280;5043;41.766;26.204;2023-05-20T11:35:50;101006.06;;;22.74;57.59
10008;BME280;5043;41.766;26.204;2023-05-20T11:38:16;101021.03;;;22.76;58.38
10008;BME280;5043;41.766;26.204;2023-05-20T11:40:51;101016.75;;;22.59;59.64
10008;BME280;5043;41.766;26.204;2023-05-20T11:43:18;101029.34;;;22.58;60.62
10008;BME280;5043;41.766;26.204;2023-05-20T11:45:46;100975.81;;;22.26;61.42
10008;BME280;5043;41.766;26.204;2023-05-20T11:48:12;101013.47;;;22.49;61.42
10008;BME280;5043;41.766;26.204;2023-05-20T11:50:44;101031.16;;;22.43;61.86
10008;BME280;5043;41.766;26.204;2023-05-20T11:53:14;101048.31;;;22.42;60.24
10008;BME280;5043;41.766;26.204;2023-05-20T11:58:15;100993.13;;;22.01;61.52
10008;BME280;5043;41.766;26.204;2023-05-20T12:00:40;101008.78;;;22.20;61.38
10008;BME280;5043;41.766;26.204;2023-05-20T12:03:06;101002.09;;;22.16;61.38
10008;BME280;5043;41.766;26.204;2023-05-20T12:05:31;100993.25;;;22.08;61.82
10008;BME280;5043;41.766;26.204;2023-05-20T12:07:57;100999.63;;;22.07;62.36
10008;BME280;5043;41.766;26.204;2023-05-20T12:10:22;100997.91;;;22.14;62.55
10008;BME280;5043;41.766;26.204;2023-05-20T12:12:48;101009.28;;;22.24;62.49
10008;BME280;5043;41.766;26.204;2023-05-20T12:15:14;100996.78;;;22.31;61.98
10008;BME280;5043;41.766;26.204;2023-05-20T12:17:45;101001.28;;;22.38;61.85
10008;BME280;5043;41.766;26.204;2023-05-20T12:20:14;101000.66;;;22.51;60.86
10008;BME280;5043;41.766;26.204;2023-05-20T12:22:40;101015.59;;;22.53;61.22
10008;BME280;5043;41.766;26.204;2023-05-20T12:25:06;100977.50;;;22.50;61.21
10008;BME280;5043;41.766;26.204;2023-05-20T12:27:31;100964.09;;;22.42;60.62
10008;BME280;5043;41.766;26.204;2023-05-20T12:29:59;100978.59;;;22.64;60.89
10008;BME280;5043;41.766;26.204;2023-05-20T12:32:25;100979.88;;;22.68;60.62
10008;BME280;5043;41.766;26.204;2023-05-20T12:34:50;100971.72;;;22.61;61.13
10008;BME280;5043;41.766;26.204;2023-05-20T12:37:16;100970.31;;;22.65;61.33
10008;BME280;5043;41.766;26.204;2023-05-20T12:39:41;100960.50;;;22.72;61.87
10008;BME280;5043;41.766;26.204;2023-05-20T12:42:07;100956.06;;;22.79;62.56
10008;BME280;5043;41.766;26.204;2023-05-20T12:44:34;100951.06;;;22.91;62.04
10008;BME280;5043;41.766;26.204;2023-05-20T12:47:00;100893.78;;;22.68;62.01
10008;BME280;5043;41.766;26.204;2023-05-20T12:49:26;100944.06;;;23.04;61.13
10008;BME280;5043;41.766;26.204;2023-05-20T12:51:52;100931.88;;;23.08;61.62
10008;BME280;5043;41.766;26.204;2023-05-20T12:54:18;100903.81;;;22.88;61.34